Terminal Aerodrome Forecast
Issued by NWS

Home | Current Version | Previous Version | Graphics & Text | Print | Product List | Glossary On
Versions: 1 2 3 4 5 6 7 8 9 10 11 12 13 14 15 16 17 18 19 20 21 22 23 24 25
000
FTUS43 KGRB 202100 AAA
TAFAUW
TAF AMD
KAUW 202103Z 2021/2118 28013G21KT P6SM SCT040 BKN250
     FM202300 27007KT P6SM SCT035 BKN100
     FM210200 29003KT 6SM -SHRA BR SCT025 OVC050
      TEMPO 2102/2104 3SM -TSRA BR OVC025CB
     FM211200 35007KT P6SM VCSH BKN020
     FM211600 33009KT P6SM BKN030=

USA.gov is the U.S. government's official web portal to all federal, state and local government web resources and services.